METAR stanice u blizini

 

LYBE - Beograd / Surčin, Srbija
Ažurirano: 17/01/2021 23:30
Mist, Pretežno oblačno
Mist, Pretežno oblačno
 Pravac vetra varies
Vetar: varies 4 km/h
Temperatura: -4°C
Tačka rose: -5°C
Vlažnost: 93%
Pritisak: 1022 hPa
Pregled: Mist
Oblaci: Mostly Cloudy
Vidljivost: 4 km
Cloud details: Few Clouds 122 m
Mostly Cloudy 457 m
2021/01/17 22:30 LYBE 172230Z VRB02KT 4000 BR FEW004 BKN015 M04/M05 Q1022 R12/2///95 NOSIG
LYBT - Beograd / Batajnica, Srbija
Ažurirano: 17/01/2021 23:30
Mist, Pretežno oblačno
Mist, Pretežno oblačno
 Pravac vetra Z
Vetar: Z 4 km/h
Temperatura: -6°C
Tačka rose: -6°C
Vlažnost: 100%
Pritisak: 1022 hPa
Pregled: Mist
Oblaci: Mostly Cloudy
Vidljivost: 2 km
Cloud details: Mostly Cloudy 396 m
2021/01/17 22:30 LYBT 172230Z 27002KT 2000 BR BKN013 M06/M06 Q1022 NOSIG
LYVR - Vršac, Srbija
Ažurirano: 17/01/2021 23:30
Light snow, Showers, Oblačno
Light snow, Showers, Oblačno
 Pravac vetra JJZ
Vetar: JJZ 4 km/h
Temperatura: -5°C
Tačka rose: -6°C
Vlažnost: 93%
Pritisak: 1021 hPa
Pregled: Light snow, Showers
Oblaci: Oblačno
Vidljivost: 6 km
Cloud details: Oblačno 1219 m
2021/01/17 22:30 LYVR 172230Z AUTO 21002KT 6000 -SHSN OVC040/// M05/M06 Q1021
 
LYKV - Lađevci, Srbija
Ažurirano: 17/01/2021 23:30
Mostly Cloudy
Mostly Cloudy
 Pravac vetra calm
Vetar: Tišina
Temperatura: -5°C
Tačka rose: -5°C
Vlažnost: 100%
Pritisak: 1021 hPa
Oblaci: Mostly Cloudy
Vidljivost: 10 km
Cloud details: Mostly Cloudy 823 m
2021/01/17 22:30 LYKV 172230Z 00000KT 9999 BKN027 M05/M05 Q1021 NOSIG
LYNI - Niš, Srbija
Ažurirano: 17/01/2021 23:30
Light snow, Oblačno
Light snow, Oblačno
 Pravac vetra SZ
Vetar: SZ 9 km/h
Temperatura: -4°C
Osećaj hladnoće: -8°C
Tačka rose: -6°C
Vlažnost: 86%
Pritisak: 1020 hPa
Pregled: Light Snow
Oblaci: Oblačno
Vidljivost: 10 km
Cloud details: Partly Cloudy 396 m
Oblačno 1006 m
2021/01/17 22:30 LYNI 172230Z 32005KT 9999 -SN SCT013 OVC033 M04/M06 Q1020 R11/2///95 NOSIG
BKPR - Priština, Srbija
Ažurirano: 17/01/2021 23:30
Mostly Cloudy
Mostly Cloudy
 Pravac vetra SSZ
Vetar: SSZ 9 km/h
Temperatura: -5°C
Osećaj hladnoće: -9°C
Tačka rose: -10°C
Vlažnost: 68%
Pritisak: 1017 hPa
Oblaci: Mostly Cloudy
Vidljivost: 10 km
Cloud details: Partly Cloudy 914 m
Mostly Cloudy 1524 m
2021/01/17 22:30 BKPR 172230Z 34005KT 9999 SCT030 BKN050 M05/M10 Q1017 NOSIG RMK 17390095
 
LHPP - Pecs / Pogany, Hungary
Ažurirano: 17/01/2021 18:45
NOT Current
Mostly Cloudy
Mostly Cloudy
 Pravac vetra SSZ
Vetar: SSZ 6 km/h
Temperatura: -4°C
Tačka rose: -6°C
Vlažnost: 86%
Pritisak: 1019 hPa
Oblaci: Mostly Cloudy
Vidljivost: 10 km
Cloud details: Partly Cloudy 488 m
Mostly Cloudy 2530 m
2021/01/17 17:45 LHPP 171745Z 34003KT 9999 SCT016 BKN083 M04/M06 Q1019
LHUD - Szeged, Hungary
Ažurirano: 04/07/2019 01:45
NOT Current
Vedro
Vedro
 Pravac vetra S
Vetar: S 7 km/h
Temperatura: 18°C
Tačka rose: 13°C
Vlažnost: 73%
Pritisak: 1019 hPa
Pregled: Vedro
Vidljivost: greater than 10 km
2019/07/03 23:45 LHUD 032345Z 35004KT CAVOK 18/13 Q1019
LRTR - Timisoara, Romania
Ažurirano: 17/01/2021 23:30
Light snow, Mist, Oblačno
Light snow, Mist, Oblačno
 Pravac vetra ZSZ
Vetar: ZSZ 7 km/h
Temperatura: -5°C
Osećaj hladnoće: -8°C
Tačka rose: -5°C
Vlažnost: 100%
Pritisak: 1021 hPa
Pregled: Light snow, Mist
Oblaci: Oblačno
Vidljivost: 5 km
Cloud details: Partly Cloudy 213 m
Oblačno 1311 m
2021/01/17 22:30 LRTR 172230Z 29004KT 5000 -SN BR SCT007 OVC043 M05/M05 Q1021 R11/590794
 
LRCV - Craiova, Romania
Ažurirano: 17/01/2021 23:30
Partly Cloudy
Partly Cloudy
 Pravac vetra Z
Vetar: Z 7 km/h
Temperatura: -7°C
Osećaj hladnoće: -11°C
Tačka rose: -9°C
Vlažnost: 86%
Pritisak: 1018 hPa
Oblaci: Partly Cloudy
Vidljivost: 8 km
2021/01/17 22:30 LRCV 172230Z 26004KT 8000 NSC M07/M09 Q1018
LBSF - Sofia, Bulgaria
Ažurirano: 17/01/2021 23:30
Oblačno
Oblačno
 Pravac vetra SZ
Vetar: SZ 9 km/h
Temperatura: -7°C
Osećaj hladnoće: -12°C
Tačka rose: -9°C
Vlažnost: 86%
Pritisak: 1017 hPa
Oblaci: Oblačno
Vidljivost: 10 km
Cloud details: Oblačno 1524 m
2021/01/17 22:30 LBSF 172230Z 32005KT 9999 OVC050 M07/M09 Q1017 NOSIG
LWSK - Skoplje, Makedonija
Ažurirano: 17/01/2021 23:30
Mostly Cloudy
Mostly Cloudy
 Pravac vetra S
Vetar: S 13 km/h
Temperatura: -3°C
Osećaj hladnoće: -7°C
Tačka rose: -6°C
Vlažnost: 80%
Pritisak: 1019 hPa
Oblaci: Mostly Cloudy
Vidljivost: 10 km
Cloud details: Few Clouds 610 m
Mostly Cloudy 1219 m
2021/01/17 22:30 LWSK 172230Z 36007KT 9999 FEW020 BKN040 M03/M06 Q1019 NOSIG
 
LYPG - Podgorica, Crna Gora
Ažurirano: 17/01/2021 23:30
Oblačno
Oblačno
 Pravac vetra calm
Vetar: Tišina
Temperatura: -1°C
Tačka rose: -3°C
Vlažnost: 86%
Pritisak: 1018 hPa
Oblaci: Oblačno
Vidljivost: 10 km
Cloud details: Few Clouds 1006 m
Oblačno 2134 m
2021/01/17 22:30 LYPG 172230Z 00000KT 9999 FEW033 OVC070 M01/M03 Q1018 NOSIG
LQSA - Sarajevo, Bosna i Hercegovina
Ažurirano: 17/01/2021 23:00
Mostly Cloudy
Mostly Cloudy
 Pravac vetra varies
Vetar: varies 4 km/h
Temperatura: -5°C
Tačka rose: -5°C
Vlažnost: 100%
Pritisak: 1018 hPa
Oblaci: Mostly Cloudy
Vidljivost: 6 km
Cloud details: Few Clouds 1067 m
Partly Cloudy 1372 m
Mostly Cloudy 1829 m
2021/01/17 22:00 LQSA 172200Z VRB02KT 6000 FEW035 SCT045 BKN060 M05/M05 Q1018
LDOS - Osijek, Hrvatksa
Ažurirano: 17/01/2021 23:30
Vedro
Vedro
 Pravac vetra SZ
Vetar: SZ 17 km/h
Temperatura: -10°C
Osećaj hladnoće: -17°C
Tačka rose: -10°C
Vlažnost: 100%
Pritisak: 1022 hPa
Pregled: Vedro
Vidljivost: greater than 10 km
2021/01/17 22:30 LDOS 172230Z 32009KT CAVOK M10/M10 Q1022 R11///////